sensor_id;sensor_type;location;lat;lon;timestamp;pressure;altitude;pressure_sealevel;temperature;humidity
57000;BME280;42891;50.006;21.964;2022-09-20T00:01:56;98648.03;;;9.54;87.94
57000;BME280;42891;50.006;21.964;2022-09-20T00:06:00;98644.00;;;9.50;88.17
57000;BME280;42891;50.006;21.964;2022-09-20T00:10:00;98633.75;;;9.47;88.45
57000;BME280;42891;50.006;21.964;2022-09-20T00:14:03;98627.66;;;9.47;88.60
57000;BME280;42891;50.006;21.964;2022-09-20T00:18:05;98623.34;;;9.46;88.68
57000;BME280;42891;50.006;21.964;2022-09-20T00:22:05;98621.13;;;9.51;88.60
57000;BME280;42891;50.006;21.964;2022-09-20T00:26:05;98616.97;;;9.48;88.77
57000;BME280;42891;50.006;21.964;2022-09-20T00:30:06;98627.22;;;9.51;88.70
57000;BME280;42891;50.006;21.964;2022-09-20T00:34:08;98639.16;;;9.55;88.64
57000;BME280;42891;50.006;21.964;2022-09-20T00:38:27;98607.53;;;9.16;89.12
57000;BME280;42891;50.006;21.964;2022-09-20T00:42:29;98628.47;;;9.28;90.15
57000;BME280;42891;50.006;21.964;2022-09-20T00:46:39;98625.25;;;9.24;90.21
57000;BME280;42891;50.006;21.964;2022-09-20T00:50:48;98623.47;;;9.34;89.79
57000;BME280;42891;50.006;21.964;2022-09-20T00:54:50;98629.84;;;9.32;89.79
57000;BME280;42891;50.006;21.964;2022-09-20T00:59:00;98616.41;;;9.35;89.64
57000;BME280;42891;50.006;21.964;2022-09-20T01:03:06;98626.28;;;9.43;89.76
57000;BME280;42891;50.006;21.964;2022-09-20T01:07:10;98620.69;;;9.26;90.15
57000;BME280;42891;50.006;21.964;2022-09-20T01:11:12;98621.09;;;9.41;90.11
57000;BME280;42891;50.006;21.964;2022-09-20T01:15:13;98626.94;;;9.45;90.04
57000;BME280;42891;50.006;21.964;2022-09-20T01:19:37;98629.72;;;9.53;90.17
57000;BME280;42891;50.006;21.964;2022-09-20T01:23:48;98632.22;;;9.64;89.52
57000;BME280;42891;50.006;21.964;2022-09-20T01:27:52;98633.88;;;9.65;89.27
57000;BME280;42891;50.006;21.964;2022-09-20T01:31:54;98635.44;;;9.58;89.58
57000;BME280;42891;50.006;21.964;2022-09-20T01:35:58;98634.56;;;9.48;89.54
57000;BME280;42891;50.006;21.964;2022-09-20T01:40:11;98624.59;;;9.61;89.73
57000;BME280;42891;50.006;21.964;2022-09-20T01:44:47;98611.84;;;9.57;89.87
57000;BME280;42891;50.006;21.964;2022-09-20T01:48:57;98618.38;;;9.62;90.00
57000;BME280;42891;50.006;21.964;2022-09-20T02:02:21;98632.22;;;9.74;89.63
57000;BME280;42891;50.006;21.964;2022-09-20T02:20:05;98625.69;;;9.19;92.14
57000;BME280;42891;50.006;21.964;2022-09-20T02:46:21;98644.13;;;9.19;94.00
57000;BME280;42891;50.006;21.964;2022-09-20T02:54:49;98633.72;;;9.18;93.28
57000;BME280;42891;50.006;21.964;2022-09-20T03:25:39;98645.25;;;9.46;93.07
57000;BME280;42891;50.006;21.964;2022-09-20T03:38:42;98652.63;;;9.43;92.87
57000;BME280;42891;50.006;21.964;2022-09-20T03:42:53;98632.78;;;9.29;92.94
57000;BME280;42891;50.006;21.964;2022-09-20T03:51:28;98647.34;;;9.43;92.96
57000;BME280;42891;50.006;21.964;2022-09-20T04:00:22;98640.41;;;9.32;93.26
57000;BME280;42891;50.006;21.964;2022-09-20T04:04:45;98648.97;;;9.34;93.60
57000;BME280;42891;50.006;21.964;2022-09-20T04:13:37;98631.63;;;9.21;93.88
57000;BME280;42891;50.006;21.964;2022-09-20T04:21:59;98668.28;;;9.44;93.53
57000;BME280;42891;50.006;21.964;2022-09-20T04:26:00;98676.22;;;9.54;93.44
57000;BME280;42891;50.006;21.964;2022-09-20T04:30:05;98680.53;;;9.55;93.99
57000;BME280;42891;50.006;21.964;2022-09-20T04:34:15;98683.00;;;9.57;93.65
57000;BME280;42891;50.006;21.964;2022-09-20T04:38:18;98673.13;;;9.49;93.79
57000;BME280;42891;50.006;21.964;2022-09-20T05:00:05;98698.13;;;9.54;95.91
57000;BME280;42891;50.006;21.964;2022-09-20T05:08:56;98693.41;;;9.58;95.68
57000;BME280;42891;50.006;21.964;2022-09-20T05:13:20;98715.06;;;9.71;95.67
57000;BME280;42891;50.006;21.964;2022-09-20T05:25:54;98715.19;;;9.80;95.10
57000;BME280;42891;50.006;21.964;2022-09-20T05:30:24;98715.19;;;9.80;95.13
57000;BME280;42891;50.006;21.964;2022-09-20T05:34:33;98724.09;;;9.79;95.82
57000;BME280;42891;50.006;21.964;2022-09-20T05:38:44;98736.88;;;9.93;95.13
57000;BME280;42891;50.006;21.964;2022-09-20T05:42:53;98744.06;;;9.91;94.44
57000;BME280;42891;50.006;21.964;2022-09-20T05:47:02;98750.34;;;9.90;94.14
57000;BME280;42891;50.006;21.964;2022-09-20T05:55:58;98742.00;;;9.95;95.05
57000;BME280;42891;50.006;21.964;2022-09-20T06:00:23;98756.72;;;9.97;94.49
57000;BME280;42891;50.006;21.964;2022-09-20T06:04:46;98753.13;;;9.88;94.72
57000;BME280;42891;50.006;21.964;2022-09-20T06:09:14;98762.69;;;9.99;95.05
57000;BME280;42891;50.006;21.964;2022-09-20T06:13:44;98771.31;;;10.01;94.94
57000;BME280;42891;50.006;21.964;2022-09-20T06:17:54;98760.59;;;9.93;95.42
57000;BME280;42891;50.006;21.964;2022-09-20T06:22:02;98767.94;;;9.99;95.61
57000;BME280;42891;50.006;21.964;2022-09-20T06:26:08;98749.78;;;9.86;96.43
57000;BME280;42891;50.006;21.964;2022-09-20T06:30:16;98754.38;;;10.04;96.77
57000;BME280;42891;50.006;21.964;2022-09-20T06:34:17;98752.56;;;9.95;98.16
57000;BME280;42891;50.006;21.964;2022-09-20T06:42:56;98767.56;;;10.04;98.69
57000;BME280;42891;50.006;21.964;2022-09-20T06:46:59;98769.50;;;10.12;98.54
57000;BME280;42891;50.006;21.964;2022-09-20T06:51:00;98765.88;;;10.03;98.21
57000;BME280;42891;50.006;21.964;2022-09-20T06:55:01;98766.47;;;10.06;98.86
57000;BME280;42891;50.006;21.964;2022-09-20T06:59:06;98780.91;;;10.22;99.08
57000;BME280;42891;50.006;21.964;2022-09-20T07:03:07;98791.31;;;10.33;99.08
57000;BME280;42891;50.006;21.964;2022-09-20T07:07:15;98789.50;;;10.34;98.91
57000;BME280;42891;50.006;21.964;2022-09-20T07:11:17;98790.34;;;10.24;98.60
57000;BME280;42891;50.006;21.964;2022-09-20T07:15:17;98795.75;;;10.33;98.40
57000;BME280;42891;50.006;21.964;2022-09-20T07:19:21;98802.56;;;10.35;98.45
57000;BME280;42891;50.006;21.964;2022-09-20T07:23:22;98824.81;;;10.43;97.75
57000;BME280;42891;50.006;21.964;2022-09-20T07:27:23;98800.66;;;10.37;98.18
57000;BME280;42891;50.006;21.964;2022-09-20T07:31:24;98809.94;;;10.51;97.83
57000;BME280;42891;50.006;21.964;2022-09-20T07:35:25;98811.63;;;10.52;97.27
57000;BME280;42891;50.006;21.964;2022-09-20T07:39:26;98820.34;;;10.63;96.45
57000;BME280;42891;50.006;21.964;2022-09-20T07:43:28;98833.84;;;10.60;97.10
57000;BME280;42891;50.006;21.964;2022-09-20T07:47:29;98828.28;;;10.63;97.41
57000;BME280;42891;50.006;21.964;2022-09-20T07:51:34;98821.31;;;10.62;96.85
57000;BME280;42891;50.006;21.964;2022-09-20T07:55:34;98823.41;;;10.68;97.18
57000;BME280;42891;50.006;21.964;2022-09-20T07:59:35;98828.53;;;10.79;96.84
57000;BME280;42891;50.006;21.964;2022-09-20T08:03:35;98822.69;;;10.75;96.53
57000;BME280;42891;50.006;21.964;2022-09-20T08:07:36;98839.63;;;10.73;96.42
57000;BME280;42891;50.006;21.964;2022-09-20T08:11:39;98817.41;;;10.75;96.28
57000;BME280;42891;50.006;21.964;2022-09-20T08:15:40;98821.72;;;10.77;96.17
57000;BME280;42891;50.006;21.964;2022-09-20T08:19:41;98833.50;;;10.92;96.14
57000;BME280;42891;50.006;21.964;2022-09-20T08:23:45;98827.28;;;10.83;97.34
57000;BME280;42891;50.006;21.964;2022-09-20T08:27:53;98838.66;;;10.84;96.51
57000;BME280;42891;50.006;21.964;2022-09-20T08:31:53;98835.84;;;10.95;96.04
57000;BME280;42891;50.006;21.964;2022-09-20T08:35:57;98849.63;;;10.99;96.40
57000;BME280;42891;50.006;21.964;2022-09-20T08:39:58;98850.06;;;10.94;95.76
57000;BME280;42891;50.006;21.964;2022-09-20T08:44:17;98853.78;;;11.11;96.06
57000;BME280;42891;50.006;21.964;2022-09-20T08:48:28;98847.41;;;10.94;96.11
57000;BME280;42891;50.006;21.964;2022-09-20T08:52:35;98814.75;;;10.85;95.88
57000;BME280;42891;50.006;21.964;2022-09-20T08:56:36;98842.53;;;10.99;95.52
57000;BME280;42891;50.006;21.964;2022-09-20T09:00:45;98845.72;;;11.03;95.19
57000;BME280;42891;50.006;21.964;2022-09-20T09:04:48;98850.69;;;11.16;95.60
57000;BME280;42891;50.006;21.964;2022-09-20T09:08:49;98845.03;;;11.01;94.71
57000;BME280;42891;50.006;21.964;2022-09-20T09:12:53;98830.78;;;11.21;94.16
57000;BME280;42891;50.006;21.964;2022-09-20T09:16:53;98841.84;;;11.45;94.19
57000;BME280;42891;50.006;21.964;2022-09-20T09:20:53;98833.34;;;11.51;94.68
57000;BME280;42891;50.006;21.964;2022-09-20T09:25:22;98849.97;;;11.61;93.98
57000;BME280;42891;50.006;21.964;2022-09-20T09:29:23;98835.94;;;11.60;91.42
57000;BME280;42891;50.006;21.964;2022-09-20T09:33:24;98856.16;;;11.80;91.91
57000;BME280;42891;50.006;21.964;2022-09-20T09:37:29;98847.22;;;11.53;91.58
57000;BME280;42891;50.006;21.964;2022-09-20T09:41:31;98849.00;;;11.62;91.90
57000;BME280;42891;50.006;21.964;2022-09-20T09:45:36;98840.19;;;11.71;92.86
57000;BME280;42891;50.006;21.964;2022-09-20T09:49:55;98843.38;;;11.75;91.27
57000;BME280;42891;50.006;21.964;2022-09-20T09:53:55;98847.75;;;11.66;89.58
57000;BME280;42891;50.006;21.964;2022-09-20T09:58:10;98833.97;;;11.63;89.12
57000;BME280;42891;50.006;21.964;2022-09-20T10:07:00;98845.63;;;11.98;89.39
57000;BME280;42891;50.006;21.964;2022-09-20T10:15:57;98845.66;;;12.16;87.79
57000;BME280;42891;50.006;21.964;2022-09-20T10:20:03;98852.31;;;12.20;86.88
57000;BME280;42891;50.006;21.964;2022-09-20T10:36:58;98835.09;;;12.34;85.63
57000;BME280;42891;50.006;21.964;2022-09-20T10:45:50;98815.88;;;12.50;86.11
57000;BME280;42891;50.006;21.964;2022-09-20T10:58:33;98839.09;;;13.00;82.26
57000;BME280;42891;50.006;21.964;2022-09-20T11:07:12;98850.19;;;13.22;75.11
57000;BME280;42891;50.006;21.964;2022-09-20T11:11:27;98847.53;;;13.22;73.09
57000;BME280;42891;50.006;21.964;2022-09-20T11:15:34;98842.94;;;13.32;74.65
57000;BME280;42891;50.006;21.964;2022-09-20T11:20:00;98838.75;;;13.29;74.63
57000;BME280;42891;50.006;21.964;2022-09-20T11:28:35;98836.75;;;13.23;73.33
57000;BME280;42891;50.006;21.964;2022-09-20T11:36:55;98827.00;;;13.58;72.76
57000;BME280;42891;50.006;21.964;2022-09-20T11:41:00;98849.84;;;13.86;71.91
57000;BME280;42891;50.006;21.964;2022-09-20T11:45:02;98829.94;;;13.81;71.78
57000;BME280;42891;50.006;21.964;2022-09-20T11:49:12;98829.75;;;13.83;72.53
57000;BME280;42891;50.006;21.964;2022-09-20T11:57:24;98817.28;;;13.75;71.73
57000;BME280;42891;50.006;21.964;2022-09-20T12:01:28;98819.97;;;13.84;70.58
57000;BME280;42891;50.006;21.964;2022-09-20T12:05:33;98821.44;;;13.78;70.76
57000;BME280;42891;50.006;21.964;2022-09-20T12:09:38;98832.03;;;13.70;69.15
57000;BME280;42891;50.006;21.964;2022-09-20T12:13:42;98839.84;;;13.79;70.23
57000;BME280;42891;50.006;21.964;2022-09-20T12:30:21;98829.88;;;14.32;68.91
57000;BME280;42891;50.006;21.964;2022-09-20T12:38:27;98843.31;;;14.39;66.48
57000;BME280;42891;50.006;21.964;2022-09-20T12:42:31;98844.31;;;14.55;67.76
57000;BME280;42891;50.006;21.964;2022-09-20T12:46:39;98836.66;;;14.43;71.33
57000;BME280;42891;50.006;21.964;2022-09-20T12:50:41;98834.00;;;14.43;72.59
57000;BME280;42891;50.006;21.964;2022-09-20T12:55:00;98843.97;;;14.33;71.03
57000;BME280;42891;50.006;21.964;2022-09-20T12:59:01;98851.25;;;14.14;65.72
57000;BME280;42891;50.006;21.964;2022-09-20T13:11:43;98857.81;;;13.86;67.86
57000;BME280;42891;50.006;21.964;2022-09-20T13:15:48;98818.03;;;13.51;70.79
57000;BME280;42891;50.006;21.964;2022-09-20T13:19:49;98825.50;;;13.56;72.40
57000;BME280;42891;50.006;21.964;2022-09-20T13:23:52;98839.44;;;13.58;75.34
57000;BME280;42891;50.006;21.964;2022-09-20T13:28:25;98848.91;;;13.60;74.81
57000;BME280;42891;50.006;21.964;2022-09-20T13:32:29;98863.41;;;13.40;75.81
57000;BME280;42891;50.006;21.964;2022-09-20T13:36:30;98852.66;;;13.23;76.05
57000;BME280;42891;50.006;21.964;2022-09-20T13:40:34;98855.22;;;13.59;74.25
57000;BME280;42891;50.006;21.964;2022-09-20T13:44:35;98860.16;;;14.64;71.62
57000;BME280;42891;50.006;21.964;2022-09-20T13:48:37;98854.44;;;15.17;66.97
57000;BME280;42891;50.006;21.964;2022-09-20T13:52:50;98851.34;;;16.56;63.05
57000;BME280;42891;50.006;21.964;2022-09-20T13:56:51;98831.69;;;16.10;61.75
57000;BME280;42891;50.006;21.964;2022-09-20T14:01:02;98861.88;;;15.94;62.44
57000;BME280;42891;50.006;21.964;2022-09-20T14:05:04;98845.78;;;15.31;64.33
57000;BME280;42891;50.006;21.964;2022-09-20T14:09:07;98861.09;;;15.13;65.51
57000;BME280;42891;50.006;21.964;2022-09-20T14:13:13;98863.72;;;15.38;66.14
57000;BME280;42891;50.006;21.964;2022-09-20T14:17:16;98847.97;;;15.03;67.76
57000;BME280;42891;50.006;21.964;2022-09-20T14:21:23;98829.25;;;14.80;67.70
57000;BME280;42891;50.006;21.964;2022-09-20T14:25:26;98855.44;;;14.58;68.90
57000;BME280;42891;50.006;21.964;2022-09-20T14:33:39;98846.66;;;15.07;68.78
57000;BME280;42891;50.006;21.964;2022-09-20T14:41:43;98839.38;;;15.01;67.56
57000;BME280;42891;50.006;21.964;2022-09-20T14:45:51;98854.00;;;14.89;66.83
57000;BME280;42891;50.006;21.964;2022-09-20T14:49:53;98855.16;;;14.94;67.96
57000;BME280;42891;50.006;21.964;2022-09-20T14:58:11;98871.03;;;14.28;69.43
57000;BME280;42891;50.006;21.964;2022-09-20T15:02:13;98872.69;;;14.38;70.47
57000;BME280;42891;50.006;21.964;2022-09-20T15:06:14;98865.22;;;14.25;70.94
57000;BME280;42891;50.006;21.964;2022-09-20T15:10:14;98885.63;;;14.24;70.94
57000;BME280;42891;50.006;21.964;2022-09-20T15:14:15;98894.59;;;14.31;71.68
57000;BME280;42891;50.006;21.964;2022-09-20T15:18:24;98877.19;;;14.37;72.45
57000;BME280;42891;50.006;21.964;2022-09-20T15:22:25;98893.78;;;14.47;73.03
57000;BME280;42891;50.006;21.964;2022-09-20T15:26:26;98887.09;;;14.19;74.50
57000;BME280;42891;50.006;21.964;2022-09-20T15:30:26;98880.47;;;14.14;75.87
57000;BME280;42891;50.006;21.964;2022-09-20T15:34:27;98902.16;;;14.10;76.80
57000;BME280;42891;50.006;21.964;2022-09-20T15:38:27;98903.97;;;14.01;77.39
57000;BME280;42891;50.006;21.964;2022-09-20T15:42:27;98911.28;;;14.07;76.04
57000;BME280;42891;50.006;21.964;2022-09-20T15:46:28;98907.44;;;14.02;75.21
57000;BME280;42891;50.006;21.964;2022-09-20T15:50:28;98904.75;;;13.93;74.81
57000;BME280;42891;50.006;21.964;2022-09-20T15:54:29;98916.66;;;13.81;74.00
57000;BME280;42891;50.006;21.964;2022-09-20T15:58:31;98893.75;;;13.72;73.30
57000;BME280;42891;50.006;21.964;2022-09-20T16:02:32;98905.13;;;13.64;74.31
57000;BME280;42891;50.006;21.964;2022-09-20T16:06:33;98923.84;;;13.62;73.96
57000;BME280;42891;50.006;21.964;2022-09-20T16:10:33;98897.94;;;13.48;74.98
57000;BME280;42891;50.006;21.964;2022-09-20T16:14:34;98920.50;;;13.52;75.97
57000;BME280;42891;50.006;21.964;2022-09-20T16:18:35;98935.22;;;13.28;77.84
57000;BME280;42891;50.006;21.964;2022-09-20T16:22:53;98941.50;;;13.45;77.87
57000;BME280;42891;50.006;21.964;2022-09-20T16:26:54;98918.47;;;13.28;77.70
57000;BME280;42891;50.006;21.964;2022-09-20T16:30:58;98937.81;;;13.38;78.53
57000;BME280;42891;50.006;21.964;2022-09-20T16:34:58;98946.06;;;13.17;73.76
57000;BME280;42891;50.006;21.964;2022-09-20T16:39:03;98985.09;;;12.71;74.07
57000;BME280;42891;50.006;21.964;2022-09-20T16:43:03;98994.03;;;12.88;76.19
57000;BME280;42891;50.006;21.964;2022-09-20T16:47:11;98989.09;;;12.75;77.61
57000;BME280;42891;50.006;21.964;2022-09-20T16:51:12;98988.38;;;12.55;77.89
57000;BME280;42891;50.006;21.964;2022-09-20T16:55:13;98994.78;;;12.34;80.01
57000;BME280;42891;50.006;21.964;2022-09-20T16:59:15;98961.03;;;12.08;81.09
57000;BME280;42891;50.006;21.964;2022-09-20T17:03:16;99003.94;;;12.12;80.05
57000;BME280;42891;50.006;21.964;2022-09-20T17:07:16;98999.53;;;11.93;80.70
57000;BME280;42891;50.006;21.964;2022-09-20T17:11:19;99009.28;;;12.02;81.09
57000;BME280;42891;50.006;21.964;2022-09-20T17:15:20;99010.97;;;11.84;80.43
57000;BME280;42891;50.006;21.964;2022-09-20T17:19:21;99014.88;;;11.80;81.22
57000;BME280;42891;50.006;21.964;2022-09-20T17:23:21;99003.47;;;11.79;81.42
57000;BME280;42891;50.006;21.964;2022-09-20T17:27:22;99000.97;;;11.77;81.66
57000;BME280;42891;50.006;21.964;2022-09-20T17:31:32;99023.50;;;11.82;81.45
57000;BME280;42891;50.006;21.964;2022-09-20T17:35:33;99034.53;;;11.67;83.29
57000;BME280;42891;50.006;21.964;2022-09-20T17:39:33;99009.63;;;11.60;82.96
57000;BME280;42891;50.006;21.964;2022-09-20T17:43:34;99042.19;;;11.70;83.25
57000;BME280;42891;50.006;21.964;2022-09-20T17:47:36;99041.06;;;11.73;83.36
57000;BME280;42891;50.006;21.964;2022-09-20T17:51:41;99012.56;;;11.47;83.98
57000;BME280;42891;50.006;21.964;2022-09-20T17:55:42;99047.47;;;11.70;84.56
57000;BME280;42891;50.006;21.964;2022-09-20T17:59:42;99059.31;;;11.76;84.98
57000;BME280;42891;50.006;21.964;2022-09-20T18:03:44;99060.84;;;11.79;84.74
57000;BME280;42891;50.006;21.964;2022-09-20T18:07:45;99064.31;;;11.79;84.62
57000;BME280;42891;50.006;21.964;2022-09-20T18:11:47;99060.97;;;11.67;84.85
57000;BME280;42891;50.006;21.964;2022-09-20T18:15:48;99061.69;;;11.69;84.48
57000;BME280;42891;50.006;21.964;2022-09-20T18:19:49;99052.78;;;11.60;85.05
57000;BME280;42891;50.006;21.964;2022-09-20T18:23:50;99076.16;;;11.75;85.43
57000;BME280;42891;50.006;21.964;2022-09-20T18:27:51;99048.31;;;11.61;86.56
57000;BME280;42891;50.006;21.964;2022-09-20T18:31:52;99077.53;;;11.79;86.40
57000;BME280;42891;50.006;21.964;2022-09-20T18:36:01;99060.59;;;11.62;86.64
57000;BME280;42891;50.006;21.964;2022-09-20T18:40:03;99085.63;;;11.58;86.65
57000;BME280;42891;50.006;21.964;2022-09-20T18:44:05;99077.72;;;11.58;87.03
57000;BME280;42891;50.006;21.964;2022-09-20T18:48:06;99071.19;;;11.42;87.42
57000;BME280;42891;50.006;21.964;2022-09-20T18:52:07;99080.91;;;11.42;87.15
57000;BME280;42891;50.006;21.964;2022-09-20T19:00:22;99079.38;;;11.30;87.85
57000;BME280;42891;50.006;21.964;2022-09-20T19:08:30;99092.03;;;11.36;87.33
57000;BME280;42891;50.006;21.964;2022-09-20T19:12:47;99094.69;;;11.36;87.05
57000;BME280;42891;50.006;21.964;2022-09-20T19:16:53;99092.16;;;11.15;88.13
57000;BME280;42891;50.006;21.964;2022-09-20T19:21:17;99097.63;;;11.33;87.83
57000;BME280;42891;50.006;21.964;2022-09-20T19:25:39;99099.69;;;11.19;87.75
57000;BME280;42891;50.006;21.964;2022-09-20T19:29:42;99068.09;;;10.98;87.75
57000;BME280;42891;50.006;21.964;2022-09-20T19:33:43;99081.59;;;11.15;87.27
57000;BME280;42891;50.006;21.964;2022-09-20T19:42:23;99096.31;;;11.27;87.38
57000;BME280;42891;50.006;21.964;2022-09-20T19:50:53;99089.53;;;11.15;87.42
57000;BME280;42891;50.006;21.964;2022-09-20T19:54:54;99084.94;;;11.17;87.36
57000;BME280;42891;50.006;21.964;2022-09-20T19:58:55;99078.34;;;10.91;88.65
57000;BME280;42891;50.006;21.964;2022-09-20T20:02:56;99081.69;;;11.03;88.42
57000;BME280;42891;50.006;21.964;2022-09-20T20:07:05;99085.19;;;10.94;88.92
57000;BME280;42891;50.006;21.964;2022-09-20T20:15:36;99087.25;;;10.90;89.20
57000;BME280;42891;50.006;21.964;2022-09-20T20:28:33;99092.09;;;10.85;89.81
57000;BME280;42891;50.006;21.964;2022-09-20T20:32:33;99101.22;;;10.71;90.55
57000;BME280;42891;50.006;21.964;2022-09-20T20:36:34;99095.69;;;10.74;90.46
57000;BME280;42891;50.006;21.964;2022-09-20T20:40:34;99105.38;;;10.64;92.41
57000;BME280;42891;50.006;21.964;2022-09-20T20:44:35;99067.09;;;10.39;92.54
57000;BME280;42891;50.006;21.964;2022-09-20T20:48:35;99082.53;;;10.53;92.82
57000;BME280;42891;50.006;21.964;2022-09-20T20:52:36;99099.66;;;10.59;93.46
57000;BME280;42891;50.006;21.964;2022-09-20T20:56:36;99077.25;;;10.53;92.44
57000;BME280;42891;50.006;21.964;2022-09-20T21:00:37;99096.56;;;10.44;92.99
57000;BME280;42891;50.006;21.964;2022-09-20T21:04:37;99111.47;;;10.55;92.65
57000;BME280;42891;50.006;21.964;2022-09-20T21:08:41;99072.25;;;10.50;92.49
57000;BME280;42891;50.006;21.964;2022-09-20T21:12:42;99119.47;;;10.74;92.18
57000;BME280;42891;50.006;21.964;2022-09-20T21:16:43;99122.28;;;10.83;92.28
57000;BME280;42891;50.006;21.964;2022-09-20T21:20:44;99106.19;;;10.55;92.98
57000;BME280;42891;50.006;21.964;2022-09-20T21:24:44;99070.41;;;10.41;93.29
57000;BME280;42891;50.006;21.964;2022-09-20T21:28:51;99116.69;;;10.76;92.80
57000;BME280;42891;50.006;21.964;2022-09-20T21:32:52;99107.22;;;10.73;92.88
57000;BME280;42891;50.006;21.964;2022-09-20T21:36:55;99068.81;;;10.29;93.43
57000;BME280;42891;50.006;21.964;2022-09-20T21:41:04;99092.88;;;10.56;92.98
57000;BME280;42891;50.006;21.964;2022-09-20T21:45:06;99116.13;;;10.72;92.80
57000;BME280;42891;50.006;21.964;2022-09-20T21:49:10;99114.41;;;10.62;93.62
57000;BME280;42891;50.006;21.964;2022-09-20T21:53:11;99117.22;;;10.70;93.57
57000;BME280;42891;50.006;21.964;2022-09-20T21:57:11;99109.44;;;10.78;92.95
57000;BME280;42891;50.006;21.964;2022-09-20T22:01:17;99112.94;;;10.79;93.13
57000;BME280;42891;50.006;21.964;2022-09-20T22:05:18;99107.22;;;10.73;92.93
57000;BME280;42891;50.006;21.964;2022-09-20T22:09:19;99112.41;;;10.85;93.18
57000;BME280;42891;50.006;21.964;2022-09-20T22:13:20;99110.72;;;10.84;93.12
57000;BME280;42891;50.006;21.964;2022-09-20T22:17:20;99088.91;;;10.82;92.78
57000;BME280;42891;50.006;21.964;2022-09-20T22:21:28;99101.56;;;10.88;92.70
57000;BME280;42891;50.006;21.964;2022-09-20T22:25:29;99110.88;;;10.92;92.21
57000;BME280;42891;50.006;21.964;2022-09-20T22:29:33;99113.38;;;10.94;92.08
57000;BME280;42891;50.006;21.964;2022-09-20T22:33:38;99124.53;;;10.97;91.52
57000;BME280;42891;50.006;21.964;2022-09-20T22:37:38;99124.50;;;10.87;91.49
57000;BME280;42891;50.006;21.964;2022-09-20T22:41:40;99102.63;;;10.75;91.51
57000;BME280;42891;50.006;21.964;2022-09-20T22:45:40;99122.81;;;10.86;91.62
57000;BME280;42891;50.006;21.964;2022-09-20T22:49:40;99127.94;;;10.78;91.67
57000;BME280;42891;50.006;21.964;2022-09-20T22:53:41;99123.50;;;10.79;91.65
57000;BME280;42891;50.006;21.964;2022-09-20T22:57:41;99128.78;;;10.69;92.67
57000;BME280;42891;50.006;21.964;2022-09-20T23:01:44;99096.75;;;10.52;92.61
57000;BME280;42891;50.006;21.964;2022-09-20T23:05:44;99121.66;;;10.69;92.54
57000;BME280;42891;50.006;21.964;2022-09-20T23:09:45;99117.22;;;10.70;92.40
57000;BME280;42891;50.006;21.964;2022-09-20T23:13:46;99125.53;;;10.65;92.64
57000;BME280;42891;50.006;21.964;2022-09-20T23:17:46;99119.13;;;10.58;92.54
57000;BME280;42891;50.006;21.964;2022-09-20T23:21:47;99110.34;;;10.57;92.81
57000;BME280;42891;50.006;21.964;2022-09-20T23:25:47;99113.69;;;10.50;93.36
57000;BME280;42891;50.006;21.964;2022-09-20T23:29:47;99122.41;;;10.50;93.54
57000;BME280;42891;50.006;21.964;2022-09-20T23:33:49;99118.47;;;10.35;93.43
57000;BME280;42891;50.006;21.964;2022-09-20T23:37:50;99122.56;;;10.49;93.31
57000;BME280;42891;50.006;21.964;2022-09-20T23:41:50;99106.88;;;10.26;93.86
57000;BME280;42891;50.006;21.964;2022-09-20T23:45:50;99117.75;;;10.33;93.40
57000;BME280;42891;50.006;21.964;2022-09-20T23:49:51;99120.88;;;10.27;93.67
57000;BME280;42891;50.006;21.964;2022-09-20T23:53:52;99109.47;;;10.16;94.21
57000;BME280;42891;50.006;21.964;2022-09-20T23:57:55;99106.78;;;10.06;95.10
